Time;durP1;ratioP1;P1;durP2;ratioP2;P2;SDS_P1;SDS_P2;PMS_P1;PMS_P2;Temp;Humidity;BMP_temperature;BMP_pressure;BME280_temperature;BME280_humidity;BME280_pressure;Samples;Min_cycle;Max_cycle;Signal;HPM_P1;HPM_P2
2024/01/15 00:00:14;;;;;;;18.20;10.25;;;;;;;3.65;94.69;99058.41;5025428;27;98348;-74
2024/01/15 00:02:41;;;;;;;17.23;9.00;;;;;;;3.71;94.98;99034.69;5018073;27;99226;-74
2024/01/15 00:05:08;;;;;;;15.63;8.45;;;;;;;3.72;95.97;99032.94;5019037;27;97152;-75
2024/01/15 00:07:35;;;;;;;15.90;8.88;;;;;;;3.75;94.73;99038.03;5021171;27;99720;-74
2024/01/15 00:10:02;;;;;;;18.27;8.57;;;;;;;3.95;94.68;99025.13;5025167;27;96975;-74
2024/01/15 00:12:29;;;;;;;16.08;8.75;;;;;;;4.00;94.12;99023.22;5025301;27;96671;-75
2024/01/15 00:14:56;;;;;;;16.40;9.93;;;;;;;3.97;93.66;99031.16;5021357;27;102472;-74
2024/01/15 00:17:23;;;;;;;15.57;9.18;;;;;;;3.96;94.35;99019.00;5024116;27;99208;-75
2024/01/15 00:19:49;;;;;;;23.02;14.00;;;;;;;3.58;95.11;99013.38;5017734;27;97324;-75
2024/01/15 00:22:16;;;;;;;17.65;11.05;;;;;;;3.61;95.90;99007.16;5022953;27;97217;-74
2024/01/15 00:24:42;;;;;;;16.55;9.25;;;;;;;4.04;94.16;99010.88;5031910;27;102107;-72
2024/01/15 00:27:09;;;;;;;12.68;7.88;;;;;;;3.73;94.39;98998.06;5026333;27;100069;-72
2024/01/15 00:29:36;;;;;;;17.45;9.00;;;;;;;3.82;94.29;98995.97;5027398;27;101090;-74
2024/01/15 00:32:04;;;;;;;12.35;7.15;;;;;;;3.46;94.97;98990.28;5021939;27;99159;-72
2024/01/15 00:34:30;;;;;;;16.90;9.80;;;;;;;3.66;94.81;98988.75;5024846;27;98863;-74
2024/01/15 00:36:57;;;;;;;14.60;7.68;;;;;;;3.46;95.00;98973.78;5021617;27;99243;-73
2024/01/15 00:39:24;;;;;;;16.70;8.88;;;;;;;3.30;95.40;98981.25;5028142;27;96693;-74
2024/01/15 00:41:50;;;;;;;15.55;8.80;;;;;;;3.41;96.30;98978.31;5027247;27;96703;-73
2024/01/15 00:44:17;;;;;;;15.65;8.18;;;;;;;4.07;92.65;98967.16;5028363;27;101837;-72
2024/01/15 00:46:45;;;;;;;12.20;7.68;;;;;;;3.92;92.62;98973.84;5011742;27;100655;-72
2024/01/15 00:49:14;;;;;;;12.15;7.60;;;;;;;3.60;92.58;98964.56;5020846;27;96772;-72
2024/01/15 00:51:40;;;;;;;21.15;12.13;;;;;;;3.72;93.84;98972.84;5027415;27;97395;-72
2024/01/15 00:54:07;;;;;;;19.17;7.97;;;;;;;3.22;94.80;98959.78;5013065;27;99551;-72
2024/01/15 00:56:33;;;;;;;17.13;8.13;;;;;;;3.66;93.77;98970.47;5019929;27;102002;-72
2024/01/15 00:59:01;;;;;;;13.48;7.53;;;;;;;4.00;91.55;98950.03;5021989;27;96802;-73
2024/01/15 01:01:28;;;;;;;15.95;9.35;;;;;;;3.72;93.84;98959.78;5023485;27;97523;-73
2024/01/15 01:03:56;;;;;;;14.20;8.65;;;;;;;3.69;94.46;98952.91;5017415;27;97819;-73
2024/01/15 01:06:24;;;;;;;18.30;8.68;;;;;;;3.77;93.58;98950.00;5023199;27;99185;-73
2024/01/15 01:08:50;;;;;;;14.93;8.30;;;;;;;4.01;92.67;98962.16;5024638;27;97199;-73
2024/01/15 01:11:17;;;;;;;15.93;8.38;;;;;;;3.89;93.68;98952.19;5024543;27;96940;-72
2024/01/15 01:13:46;;;;;;;16.25;8.27;;;;;;;3.83;94.46;98945.41;5025073;27;99086;-72
2024/01/15 01:16:13;;;;;;;18.30;9.13;;;;;;;3.61;95.37;98961.00;5018324;27;97738;-73
2024/01/15 01:18:40;;;;;;;14.57;8.43;;;;;;;3.14;98.02;98956.59;5022098;27;97209;-72
2024/01/15 01:21:07;;;;;;;19.52;8.73;;;;;;;3.15;100.00;98953.09;5018703;27;96917;-72
2024/01/15 01:23:35;;;;;;;16.83;8.45;;;;;;;3.52;99.07;98956.13;5017850;27;98228;-75
2024/01/15 01:26:01;;;;;;;18.75;9.82;;;;;;;3.88;97.60;98955.69;5023106;27;98000;-73
2024/01/15 01:28:31;;;;;;;14.68;7.68;;;;;;;4.07;95.33;98961.94;5019211;27;97166;-73
2024/01/15 01:30:58;;;;;;;16.98;9.73;;;;;;;4.11;95.02;98955.72;5020267;27;99428;-71
2024/01/15 01:33:24;;;;;;;16.98;9.05;;;;;;;3.97;95.44;98944.91;5023875;27;99293;-73
2024/01/15 01:35:51;;;;;;;16.23;8.52;;;;;;;3.85;95.39;98947.97;5018861;27;99030;-72
2024/01/15 01:38:17;;;;;;;18.25;9.45;;;;;;;3.67;97.55;98953.88;5018680;27;97296;-72
2024/01/15 01:40:45;;;;;;;15.13;8.15;;;;;;;3.86;94.79;98944.47;5019566;27;97220;-73
2024/01/15 01:43:12;;;;;;;12.88;6.90;;;;;;;3.54;96.91;98956.91;5024943;27;99732;-74
2024/01/15 01:45:38;;;;;;;17.50;9.10;;;;;;;3.92;96.38;98944.25;5013854;27;99274;-74
2024/01/15 01:48:05;;;;;;;15.52;7.95;;;;;;;3.55;97.84;98952.53;5025156;27;97210;-73
2024/01/15 01:50:32;;;;;;;15.90;8.88;;;;;;;3.65;98.26;98940.03;5023392;27;97345;-74
2024/01/15 01:52:59;;;;;;;20.50;9.80;;;;;;;3.99;97.32;98956.16;5023000;27;101954;-73
2024/01/15 01:55:28;;;;;;;18.35;9.02;;;;;;;3.61;96.97;98945.34;5018744;27;99244;-74
2024/01/15 01:57:56;;;;;;;20.38;10.40;;;;;;;3.74;96.82;98950.16;5023690;27;97072;-73
2024/01/15 02:00:23;;;;;;;21.27;10.50;;;;;;;4.14;95.64;98942.50;5020699;27;97312;-73
2024/01/15 02:02:50;;;;;;;16.73;8.00;;;;;;;3.83;94.51;98934.97;5025098;27;102115;-73
2024/01/15 02:05:19;;;;;;;18.40;9.30;;;;;;;3.33;96.45;98934.19;5025553;27;98072;-73
2024/01/15 02:07:46;;;;;;;18.08;9.57;;;;;;;3.48;98.25;98927.53;5023175;27;96933;-73
2024/01/15 02:10:12;;;;;;;17.02;8.65;;;;;;;3.37;96.22;98938.38;5020999;27;97152;-73
2024/01/15 02:12:39;;;;;;;13.57;7.00;;;;;;;3.56;96.25;98917.69;5019894;27;99072;-73
2024/01/15 02:15:07;;;;;;;12.95;6.85;;;;;;;3.78;94.59;98923.00;5015773;27;98688;-72
2024/01/15 02:17:33;;;;;;;19.80;9.25;;;;;;;3.65;93.94;98926.97;5018866;27;96821;-75
2024/01/15 02:20:00;;;;;;;16.20;8.27;;;;;;;3.68;94.76;98925.06;5020876;27;97330;-74
2024/01/15 02:22:26;;;;;;;18.00;9.00;;;;;;;3.86;93.12;98923.56;5013796;27;99002;-75
2024/01/15 02:24:54;;;;;;;15.60;7.15;;;;;;;3.76;92.57;98928.25;5015256;27;97485;-74
2024/01/15 02:27:21;;;;;;;13.63;7.10;;;;;;;3.56;92.46;98931.59;5016085;27;100279;-75
2024/01/15 02:29:48;;;;;;;15.43;6.40;;;;;;;3.18;93.87;98924.25;5015450;27;96750;-74
2024/01/15 02:32:15;;;;;;;14.35;7.25;;;;;;;3.49;92.91;98924.88;5021431;27;102188;-75
2024/01/15 02:34:41;;;;;;;13.82;6.50;;;;;;;3.74;91.73;98916.19;5029032;27;98841;-74
2024/01/15 02:37:08;;;;;;;12.20;6.07;;;;;;;3.56;90.96;98912.47;5015171;27;97108;-74
2024/01/15 02:39:34;;;;;;;19.00;6.97;;;;;;;3.85;91.13;98920.09;5022415;27;97760;-75
2024/01/15 02:42:02;;;;;;;13.70;6.47;;;;;;;3.86;89.47;98902.66;5025356;27;101813;-74
2024/01/15 02:44:29;;;;;;;13.02;6.95;;;;;;;3.70;90.76;98909.34;5027139;27;97932;-74
2024/01/15 02:46:55;;;;;;;14.35;6.43;;;;;;;3.61;90.48;98908.78;5021085;27;96668;-74
2024/01/15 02:49:21;;;;;;;14.27;6.47;;;;;;;3.72;90.24;98904.94;5017118;27;97053;-74
2024/01/15 02:51:48;;;;;;;9.35;5.32;;;;;;;3.86;89.02;98897.44;5024726;27;98814;-73
2024/01/15 02:54:14;;;;;;;11.27;6.05;;;;;;;3.69;89.59;98910.25;5022681;27;99422;-74
2024/01/15 02:56:41;;;;;;;16.00;6.45;;;;;;;3.78;89.53;98913.41;5019502;27;96766;-74
2024/01/15 02:59:08;;;;;;;12.45;6.60;;;;;;;3.73;90.22;98914.47;5024501;27;97168;-75
2024/01/15 03:01:35;;;;;;;16.42;6.32;;;;;;;3.64;90.10;98913.03;5023202;27;101983;-75
2024/01/15 03:04:01;;;;;;;16.92;6.15;;;;;;;3.94;89.37;98908.44;5019021;27;98747;-75
2024/01/15 03:06:27;;;;;;;9.90;5.63;;;;;;;3.77;88.48;98905.59;5024249;27;97351;-73
2024/01/15 03:08:54;;;;;;;10.30;4.82;;;;;;;3.43;90.20;98892.91;5018896;27;96783;-74
2024/01/15 03:11:20;;;;;;;13.23;6.95;;;;;;;3.24;91.20;98903.16;5019867;27;98883;-72
2024/01/15 03:13:47;;;;;;;17.55;5.90;;;;;;;3.57;90.30;98888.91;5023500;27;98871;-72
2024/01/15 03:16:15;;;;;;;10.27;4.47;;;;;;;3.50;88.83;98897.88;5018519;27;97061;-74
2024/01/15 03:18:41;;;;;;;12.40;6.22;;;;;;;3.30;91.04;98884.69;5025509;27;97552;-72
2024/01/15 03:21:08;;;;;;;10.48;6.03;;;;;;;3.75;89.26;98883.91;5019090;27;98097;-72
2024/01/15 03:23:34;;;;;;;10.65;5.82;;;;;;;3.68;88.32;98885.88;5018510;27;97502;-71
2024/01/15 03:26:01;;;;;;;12.43;6.28;;;;;;;3.93;88.12;98889.31;5024165;27;101191;-73
2024/01/15 03:28:30;;;;;;;11.90;5.68;;;;;;;3.86;87.42;98887.84;5020210;27;97640;-75
2024/01/15 03:30:56;;;;;;;14.45;5.40;;;;;;;3.65;88.03;98888.63;5026127;27;99292;-75
2024/01/15 03:33:24;;;;;;;10.13;5.43;;;;;;;3.51;88.49;98885.66;5028665;27;99559;-76
2024/01/15 03:35:51;;;;;;;10.68;5.32;;;;;;;3.57;88.50;98877.59;5025032;27;96719;-75
2024/01/15 03:38:17;;;;;;;10.68;4.55;;;;;;;3.24;89.54;98877.06;5026957;27;96663;-76
2024/01/15 03:40:44;;;;;;;12.15;4.95;;;;;;;3.41;88.70;98874.72;5022771;27;99161;-73
2024/01/15 03:43:10;;;;;;;12.35;4.97;;;;;;;3.52;87.32;98866.50;5024854;27;99812;-74
2024/01/15 03:45:36;;;;;;;11.48;3.95;;;;;;;3.29;88.15;98871.66;5021992;27;96590;-74
2024/01/15 03:48:03;;;;;;;7.25;3.70;;;;;;;3.28;88.77;98865.63;5022491;27;96841;-74
2024/01/15 03:50:31;;;;;;;11.57;5.82;;;;;;;3.57;87.99;98864.56;5022924;27;98858;-73
2024/01/15 03:52:57;;;;;;;13.35;5.03;;;;;;;3.48;88.05;98872.72;5015406;27;97554;-72
2024/01/15 03:55:23;;;;;;;9.77;4.47;;;;;;;3.59;88.39;98852.28;5018890;27;96734;-73
2024/01/15 03:57:50;;;;;;;15.05;5.57;;;;;;;3.69;86.93;98837.13;5025005;27;96815;-72
2024/01/15 04:00:17;;;;;;;12.43;4.20;;;;;;;3.12;88.79;98847.03;5021035;27;97571;-72
2024/01/15 04:02:43;;;;;;;12.20;4.93;;;;;;;3.34;88.56;98849.75;5021455;27;98937;-73
2024/01/15 04:05:10;;;;;;;10.90;4.97;;;;;;;3.38;88.78;98856.53;5020342;27;98322;-73
2024/01/15 04:07:38;;;;;;;12.35;5.03;;;;;;;3.46;88.23;98843.22;5019093;27;97578;-75
2024/01/15 04:10:05;;;;;;;17.33;5.13;;;;;;;3.31;88.28;98842.00;5019696;27;98898;-74
2024/01/15 04:12:32;;;;;;;16.40;4.63;;;;;;;3.11;90.12;98834.88;5023496;27;98955;-74
2024/01/15 04:14:58;;;;;;;12.27;4.93;;;;;;;2.91;90.95;98828.66;5025571;27;97269;-74
2024/01/15 04:17:24;;;;;;;9.80;4.57;;;;;;;3.22;89.59;98839.72;5027505;27;97100;-74
2024/01/15 04:19:51;;;;;;;13.05;4.70;;;;;;;3.15;90.35;98827.81;5023914;27;98935;-74
2024/01/15 04:22:17;;;;;;;11.55;4.35;;;;;;;3.18;89.53;98832.91;5023406;27;99184;-75
2024/01/15 04:24:45;;;;;;;14.75;4.88;;;;;;;3.79;87.30;98818.44;5016404;27;98103;-74
2024/01/15 04:27:12;;;;;;;7.35;3.65;;;;;;;3.58;87.56;98834.91;5016315;27;96933;-73
2024/01/15 04:29:38;;;;;;;9.35;4.35;;;;;;;3.10;88.76;98845.38;5025121;27;100677;-71
2024/01/15 04:32:05;;;;;;;14.27;4.05;;;;;;;3.45;88.38;98839.75;5025376;27;99130;-71
2024/01/15 04:34:31;;;;;;;12.77;3.25;;;;;;;3.61;86.71;98846.09;5026112;27;96799;-72
2024/01/15 04:36:58;;;;;;;13.38;5.18;;;;;;;3.38;87.37;98833.03;5023284;27;97370;-71
2024/01/15 04:39:24;;;;;;;9.73;3.15;;;;;;;3.31;87.91;98828.09;5022380;27;99105;-72
2024/01/15 04:41:52;;;;;;;13.68;5.30;;;;;;;3.13;88.70;98834.84;5022780;27;97712;-72
2024/01/15 04:44:19;;;;;;;12.52;4.03;;;;;;;3.43;88.65;98825.03;5024702;27;96796;-72
2024/01/15 04:46:45;;;;;;;8.98;2.88;;;;;;;3.46;86.98;98806.66;5021810;27;96783;-73
2024/01/15 04:49:11;;;;;;;9.13;3.08;;;;;;;3.13;88.10;98804.38;5016241;27;99161;-73
2024/01/15 04:51:38;;;;;;;11.60;3.50;;;;;;;3.43;87.64;98810.22;5026041;27;98853;-73
2024/01/15 04:54:05;;;;;;;9.13;3.70;;;;;;;3.49;86.30;98803.91;5014554;27;97261;-75
2024/01/15 04:56:31;;;;;;;10.27;3.17;;;;;;;3.72;86.40;98808.28;5021983;27;98948;-74
2024/01/15 04:58:59;;;;;;;10.77;3.05;;;;;;;3.42;85.93;98805.06;5019950;27;98995;-74
2024/01/15 05:01:25;;;;;;;14.32;3.45;;;;;;;3.29;87.03;98806.41;5018313;27;99028;-74
2024/01/15 05:03:52;;;;;;;11.98;3.15;;;;;;;3.41;86.74;98805.97;5020653;27;96865;-74
2024/01/15 05:06:18;;;;;;;11.05;3.67;;;;;;;3.76;85.53;98815.94;5018353;27;99163;-75
2024/01/15 05:08:44;;;;;;;16.88;3.53;;;;;;;3.41;85.54;98806.84;5019056;27;99194;-74
2024/01/15 05:11:11;;;;;;;7.00;2.55;;;;;;;3.65;85.17;98814.66;5019198;27;101492;-75
2024/01/15 05:13:37;;;;;;;8.65;3.08;;;;;;;3.81;84.31;98800.91;5026357;27;97810;-74
2024/01/15 05:16:05;;;;;;;7.18;2.03;;;;;;;3.42;85.11;98805.91;5018044;27;97476;-74
2024/01/15 05:18:31;;;;;;;13.35;2.50;;;;;;;3.37;86.94;98810.44;5020936;27;98851;-74
2024/01/15 05:20:58;;;;;;;8.20;2.33;;;;;;;3.33;88.38;98814.09;5020022;27;100387;-73
2024/01/15 05:23:24;;;;;;;6.20;1.88;;;;;;;3.55;87.43;98814.97;5024489;27;97136;-74
2024/01/15 05:25:51;;;;;;;11.95;2.15;;;;;;;3.70;85.74;98781.34;5019402;27;97026;-73
2024/01/15 05:28:18;;;;;;;6.55;2.47;;;;;;;3.49;86.83;98804.75;5020195;27;99315;-73
2024/01/15 05:30:44;;;;;;;8.43;2.25;;;;;;;3.28;88.50;98808.19;5019138;27;98992;-73
2024/01/15 05:33:12;;;;;;;8.25;2.25;;;;;;;3.50;87.60;98790.81;5022613;27;96771;-73
2024/01/15 05:35:38;;;;;;;9.45;2.65;;;;;;;3.48;87.20;98784.78;5024654;27;96839;-72
2024/01/15 05:38:05;;;;;;;8.95;2.22;;;;;;;3.66;85.85;98782.41;5016860;27;99304;-73
2024/01/15 05:40:31;;;;;;;8.07;2.17;;;;;;;3.56;84.95;98784.50;5022517;27;98975;-73
2024/01/15 05:42:58;;;;;;;12.50;1.88;;;;;;;3.66;86.04;98785.00;5018435;27;97591;-73
2024/01/15 05:45:24;;;;;;;4.72;1.77;;;;;;;3.62;84.87;98781.66;5022393;28;96874;-73
2024/01/15 05:47:51;;;;;;;8.52;1.58;;;;;;;3.51;86.02;98787.28;5025573;27;98989;-73
2024/01/15 05:50:19;;;;;;;10.40;1.55;;;;;;;3.73;85.84;98786.47;5016101;27;99013;-72
2024/01/15 05:52:45;;;;;;;10.68;2.38;;;;;;;3.92;84.90;98787.47;5021119;27;96916;-72
2024/01/15 05:55:11;;;;;;;7.28;1.52;;;;;;;3.57;86.86;98799.25;5025217;27;97115;-72
2024/01/15 05:57:38;;;;;;;5.28;1.52;;;;;;;3.71;88.84;98791.75;5022542;27;98939;-73
2024/01/15 06:00:06;;;;;;;7.70;1.92;;;;;;;4.01;88.90;98797.53;5025188;27;98835;-72
2024/01/15 06:02:32;;;;;;;10.30;2.58;;;;;;;3.40;89.41;98792.06;5026130;27;96830;-74
2024/01/15 06:04:59;;;;;;;10.23;1.45;;;;;;;3.25;90.83;98794.41;5026277;27;97031;-70
2024/01/15 06:07:26;;;;;;;7.80;2.03;;;;;;;3.41;89.98;98791.16;5016413;27;98057;-74
2024/01/15 06:09:53;;;;;;;11.25;2.13;;;;;;;3.62;89.86;98781.66;5025061;27;98859;-74
2024/01/15 06:12:19;;;;;;;8.23;1.95;;;;;;;3.45;89.45;98776.22;5024183;27;99654;-74
2024/01/15 06:14:46;;;;;;;15.50;1.85;;;;;;;3.56;89.68;98769.69;5022929;27;97303;-74
2024/01/15 06:17:12;;;;;;;9.70;1.88;;;;;;;3.35;89.74;98780.09;5025886;27;100719;-69
2024/01/15 06:19:39;;;;;;;10.77;2.45;;;;;;;3.84;87.71;98786.91;5020361;28;97250;-70
2024/01/15 06:22:05;;;;;;;9.00;1.88;;;;;;;3.92;86.77;98782.22;5025006;27;96709;-70
2024/01/15 06:24:33;;;;;;;11.88;1.98;;;;;;;4.34;85.15;98788.31;5020208;28;96735;-70
2024/01/15 06:27:00;;;;;;;7.95;1.55;;;;;;;4.13;83.95;98778.75;5022461;27;98839;-71
2024/01/15 06:29:27;;;;;;;9.27;1.85;;;;;;;4.16;84.37;98783.84;5024672;27;97970;-71
2024/01/15 06:31:53;;;;;;;5.60;1.95;;;;;;;4.13;85.15;98790.97;5025367;27;97986;-70
2024/01/15 06:34:20;;;;;;;3.60;1.52;;;;;;;4.02;86.26;98788.78;5023770;27;96861;-70
2024/01/15 06:36:47;;;;;;;6.15;1.40;;;;;;;3.71;88.05;98777.84;5014514;27;99356;-70
2024/01/15 06:39:13;;;;;;;6.15;2.40;;;;;;;3.85;87.55;98783.38;5024021;27;98189;-70
2024/01/15 06:41:41;;;;;;;8.65;1.52;;;;;;;3.64;88.45;98785.06;5026733;27;96716;-70
2024/01/15 06:44:08;;;;;;;12.95;1.90;;;;;;;3.79;88.14;98783.63;5026374;27;98360;-73
2024/01/15 06:46:35;;;;;;;11.85;1.92;;;;;;;3.52;89.12;98790.75;5021381;27;98906;-74
2024/01/15 06:49:02;;;;;;;7.50;1.27;;;;;;;3.79;89.00;98787.09;5023637;27;101351;-76
2024/01/15 06:51:28;;;;;;;9.18;1.50;;;;;;;3.83;87.95;98787.81;5026321;27;97152;-76
2024/01/15 06:53:55;;;;;;;6.68;1.33;;;;;;;3.84;87.42;98790.38;5021545;27;97179;-76
2024/01/15 06:56:21;;;;;;;12.80;1.27;;;;;;;3.69;88.49;98780.50;5019184;27;98787;-75
2024/01/15 06:58:49;;;;;;;10.48;1.90;;;;;;;3.89;86.82;98769.28;5022636;27;99401;-76
2024/01/15 07:01:15;;;;;;;6.82;3.53;;;;;;;3.52;87.67;98778.56;5022175;27;98925;-74
2024/01/15 07:03:42;;;;;;;13.40;1.35;;;;;;;3.43;87.46;98775.44;5026887;27;97062;-76
2024/01/15 07:06:08;;;;;;;6.72;1.50;;;;;;;3.56;87.12;98798.41;5025934;27;99757;-75
2024/01/15 07:08:34;;;;;;;10.27;2.05;;;;;;;3.69;86.15;98798.78;5024682;27;103052;-75
2024/01/15 07:11:04;;;;;;;9.98;1.13;;;;;;;3.77;86.20;98798.50;5024902;27;101052;-75
2024/01/15 07:13:30;;;;;;;6.45;1.10;;;;;;;3.64;85.63;98792.91;5025917;27;98743;-75
2024/01/15 07:15:58;;;;;;;5.70;1.20;;;;;;;4.05;84.47;98804.34;5026586;27;99129;-75
2024/01/15 07:18:25;;;;;;;13.40;1.92;;;;;;;4.23;83.59;98806.22;5022436;27;99161;-74
2024/01/15 07:20:51;;;;;;;11.05;1.40;;;;;;;4.11;81.98;98811.94;5025888;27;97813;-74
2024/01/15 07:23:18;;;;;;;6.78;1.20;;;;;;;3.91;83.16;98820.56;5028336;27;97378;-75
2024/01/15 07:25:45;;;;;;;13.48;1.80;;;;;;;3.71;84.66;98817.88;5026861;27;99483;-74
2024/01/15 07:28:11;;;;;;;12.68;2.00;;;;;;;4.19;82.66;98822.09;5021999;27;99054;-74
2024/01/15 07:30:38;;;;;;;7.22;0.93;;;;;;;4.19;82.11;98837.78;5017440;27;98887;-75
2024/01/15 07:33:06;;;;;;;14.43;2.30;;;;;;;4.07;81.51;98828.63;5026814;27;97002;-75
2024/01/15 07:35:33;;;;;;;12.93;1.10;;;;;;;3.91;83.54;98830.16;5027470;27;98995;-74
2024/01/15 07:37:59;;;;;;;7.95;1.30;;;;;;;4.19;81.32;98843.00;5025602;27;98875;-74
2024/01/15 07:40:25;;;;;;;15.25;2.60;;;;;;;4.15;81.79;98846.63;5028528;27;96799;-73
2024/01/15 07:42:52;;;;;;;7.28;0.73;;;;;;;3.98;82.16;98837.72;5025344;27;96753;-73
2024/01/15 07:45:19;;;;;;;13.55;2.15;;;;;;;4.18;82.58;98836.06;5023279;27;99040;-73
2024/01/15 07:47:45;;;;;;;12.68;1.30;;;;;;;4.47;80.35;98834.88;5019648;27;98822;-73
2024/01/15 07:50:13;;;;;;;12.07;2.25;;;;;;;4.31;80.87;98839.91;5025766;27;96841;-73
2024/01/15 07:52:41;;;;;;;10.38;1.23;;;;;;;4.68;79.52;98834.00;5022641;27;96732;-73
2024/01/15 07:55:08;;;;;;;7.22;1.38;;;;;;;4.27;80.80;98843.53;5019704;27;99013;-74
2024/01/15 07:57:35;;;;;;;16.80;2.10;;;;;;;4.46;81.39;98854.13;5018539;27;101434;-74
2024/01/15 08:00:04;;;;;;;13.30;1.83;;;;;;;4.53;79.89;98864.25;5028788;27;97214;-74
2024/01/15 08:02:31;;;;;;;9.93;1.30;;;;;;;4.46;80.91;98854.97;5022826;27;96753;-73
2024/01/15 08:04:58;;;;;;;9.07;1.30;;;;;;;4.16;80.84;98854.44;5019291;27;99839;-74
2024/01/15 08:07:26;;;;;;;8.20;1.15;;;;;;;4.43;81.00;98852.47;5022569;27;99706;-73
2024/01/15 08:09:53;;;;;;;8.30;1.40;;;;;;;5.03;78.19;98854.31;5024950;27;96785;-73
2024/01/15 08:12:20;;;;;;;9.00;1.48;;;;;;;4.73;79.42;98855.59;5026517;27;98401;-74
2024/01/15 08:14:46;;;;;;;12.57;1.58;;;;;;;4.81;78.89;98850.88;5020901;27;99004;-73
2024/01/15 08:17:12;;;;;;;9.77;1.42;;;;;;;4.43;80.33;98872.53;5023374;27;98252;-74
2024/01/15 08:19:41;;;;;;;11.38;1.10;;;;;;;4.35;81.29;98860.63;5025934;27;97119;-74
2024/01/15 08:22:07;;;;;;;11.18;1.70;;;;;;;4.20;81.12;98861.22;5025471;27;96778;-75
2024/01/15 08:24:35;;;;;;;11.70;1.08;;;;;;;4.15;81.67;98862.31;5021139;27;97763;-74
2024/01/15 08:27:01;;;;;;;11.57;1.40;;;;;;;4.57;80.85;98865.84;5022610;27;100581;-74
2024/01/15 08:29:28;;;;;;;7.53;1.70;;;;;;;4.43;81.08;98859.47;5024959;27;97862;-75
2024/01/15 08:31:54;;;;;;;10.07;1.38;;;;;;;4.46;80.99;98857.59;5026822;27;97484;-73
2024/01/15 08:34:21;;;;;;;8.60;1.20;;;;;;;4.93;79.21;98852.97;5027385;27;101113;-75
2024/01/15 08:36:47;;;;;;;11.07;1.27;;;;;;;4.38;79.11;98854.44;5020052;27;99164;-74
2024/01/15 08:39:14;;;;;;;9.63;1.48;;;;;;;4.01;80.94;98861.09;5022592;27;97292;-75
2024/01/15 08:41:41;;;;;;;5.45;1.08;;;;;;;4.14;81.97;98871.94;5023688;27;96887;-75
2024/01/15 08:44:08;;;;;;;6.68;0.77;;;;;;;4.54;79.65;98880.81;5021557;27;99117;-74
2024/01/15 08:46:34;;;;;;;10.93;1.63;;;;;;;4.46;80.76;98877.66;5018188;27;97543;-75
2024/01/15 08:49:01;;;;;;;5.15;1.00;;;;;;;4.36;80.68;98862.34;5022072;27;96827;-75
2024/01/15 08:51:27;;;;;;;7.25;1.13;;;;;;;4.44;80.06;98869.88;5024977;27;96806;-74
2024/01/15 08:53:54;;;;;;;9.07;1.17;;;;;;;4.35;80.74;98865.84;5007360;27;99005;-75
2024/01/15 08:56:20;;;;;;;6.35;1.63;;;;;;;3.64;84.16;98868.63;5009610;28;99109;-74
2024/01/15 08:58:48;;;;;;;9.50;1.58;;;;;;;4.06;82.91;98868.78;5013380;27;98958;-75
2024/01/15 09:01:15;;;;;;;9.15;1.10;;;;;;;4.38;81.36;98878.81;5017327;27;98709;-75
2024/01/15 09:03:42;;;;;;;14.48;1.67;;;;;;;4.56;80.47;98886.84;5009929;27;99180;-76
2024/01/15 09:06:09;;;;;;;12.27;1.75;;;;;;;4.19;81.59;98875.25;5021527;27;99088;-75
2024/01/15 09:08:35;;;;;;;8.23;1.52;;;;;;;4.29;81.97;98881.78;5017175;27;96852;-74
2024/01/15 09:11:03;;;;;;;9.20;2.30;;;;;;;4.39;81.93;98877.91;5026051;27;96859;-75
2024/01/15 09:13:30;;;;;;;7.90;1.95;;;;;;;4.70;80.54;98880.13;5020493;27;99691;-75
2024/01/15 09:15:59;;;;;;;9.45;1.58;;;;;;;4.66;81.15;98886.38;5020882;27;97441;-75
2024/01/15 09:18:25;;;;;;;9.40;1.45;;;;;;;4.41;81.62;98886.53;5021827;27;98649;-74
2024/01/15 09:20:52;;;;;;;10.10;2.60;;;;;;;4.37;82.11;98899.78;5024848;27;98401;-75
2024/01/15 09:23:18;;;;;;;11.38;1.95;;;;;;;4.62;81.57;98900.50;5015836;27;99886;-75
2024/01/15 09:25:44;;;;;;;11.45;1.55;;;;;;;4.62;80.88;98897.91;5021502;27;97843;-76
2024/01/15 09:28:11;;;;;;;5.15;1.25;;;;;;;4.44;81.60;98901.25;5025896;27;97278;-76
2024/01/15 09:30:38;;;;;;;9.65;1.42;;;;;;;4.48;82.75;98907.22;5015892;27;97516;-75
2024/01/15 09:33:06;;;;;;;13.10;1.50;;;;;;;4.39;82.54;98904.06;5014661;27;99332;-74
2024/01/15 09:35:32;;;;;;;13.27;1.70;;;;;;;4.85;80.90;98899.59;5007517;27;99374;-74
2024/01/15 09:37:58;;;;;;;11.82;1.65;;;;;;;4.98;79.97;98900.78;5011023;27;98801;-74
2024/01/15 09:40:28;;;;;;;10.30;1.67;;;;;;;4.68;80.19;98909.88;5020433;27;97214;-74
2024/01/15 09:42:54;;;;;;;4.78;1.10;;;;;;;4.65;80.48;98904.78;5020966;28;99500;-74
2024/01/15 09:45:24;;;;;;;7.10;1.00;;;;;;;4.99;79.39;98905.06;5024472;27;99065;-75
2024/01/15 09:47:51;;;;;;;4.93;0.90;;;;;;;4.53;80.73;98902.66;5016662;27;99121;-75
2024/01/15 09:50:20;;;;;;;11.75;1.63;;;;;;;4.55;81.42;98893.81;5024356;27;98046;-75
2024/01/15 09:52:47;;;;;;;6.13;1.10;;;;;;;4.36;81.85;98903.31;5021747;28;97636;-75
2024/01/15 09:55:15;;;;;;;7.45;1.27;;;;;;;4.80;80.12;98898.91;5020235;27;99074;-75
2024/01/15 09:57:42;;;;;;;6.78;1.23;;;;;;;4.96;79.68;98899.13;5018629;27;96771;-75
2024/01/15 10:00:10;;;;;;;8.13;1.40;;;;;;;5.06;78.80;98893.44;5015063;27;97254;-74
2024/01/15 10:02:37;;;;;;;6.88;0.85;;;;;;;4.74;78.99;98893.91;5023118;27;99548;-75
2024/01/15 10:05:04;;;;;;;5.13;0.95;;;;;;;4.18;82.11;98883.13;5021522;27;98758;-75
2024/01/15 10:07:35;;;;;;;5.88;1.42;;;;;;;4.55;81.07;98888.59;5024318;27;96698;-75
2024/01/15 10:10:03;;;;;;;15.55;1.70;;;;;;;4.82;79.84;98891.84;5020777;27;97198;-75
2024/01/15 10:12:29;;;;;;;6.05;1.00;;;;;;;4.81;79.55;98885.75;5021105;27;98935;-75
2024/01/15 10:14:57;;;;;;;7.40;0.90;;;;;;;4.75;80.23;98891.25;5017610;27;98073;-75
2024/01/15 10:17:24;;;;;;;8.20;1.20;;;;;;;4.78;79.83;98885.91;5022298;27;97987;-75
2024/01/15 10:19:51;;;;;;;5.55;0.95;;;;;;;4.44;81.57;98876.88;5014158;27;97990;-73
2024/01/15 10:22:17;;;;;;;3.10;0.88;;;;;;;5.03;78.83;98883.09;5015516;27;99272;-74
2024/01/15 10:24:46;;;;;;;3.72;1.00;;;;;;;4.97;77.88;98874.66;5023180;27;98960;-75
2024/01/15 10:27:13;;;;;;;4.85;0.95;;;;;;;4.88;78.99;98878.50;5024319;27;97113;-74
2024/01/15 10:29:39;;;;;;;5.25;1.20;;;;;;;5.28;77.85;98874.19;5021920;27;96702;-74
2024/01/15 10:32:08;;;;;;;4.50;0.95;;;;;;;5.28;77.70;98880.28;5023143;27;99231;-73
2024/01/15 10:34:34;;;;;;;1.88;0.70;;;;;;;5.41;76.52;98870.97;5021433;27;99347;-74
2024/01/15 10:37:02;;;;;;;3.10;1.10;;;;;;;4.59;79.00;98884.09;5027286;27;96846;-74
2024/01/15 10:39:28;;;;;;;2.90;0.70;;;;;;;4.45;80.56;98875.97;5019708;27;97321;-74
2024/01/15 10:41:55;;;;;;;;;;;;;;;4.48;80.30;98881.06;5028679;27;98946;-74
2024/01/15 10:44:22;;;;;;;3.85;0.90;;;;;;;4.48;80.49;98865.34;5027174;27;100633;-75
2024/01/15 10:46:48;;;;;;;2.95;0.93;;;;;;;4.47;80.80;98874.13;5022647;27;97920;-74
2024/01/15 10:49:15;;;;;;;5.28;1.13;;;;;;;4.64;80.14;98877.75;5025670;27;96877;-74
2024/01/15 10:51:43;;;;;;;9.98;1.00;;;;;;;4.91;79.29;98878.38;5018815;27;99152;-75
2024/01/15 10:54:11;;;;;;;2.85;0.80;;;;;;;4.88;78.46;98891.59;5019204;27;101692;-73
2024/01/15 10:56:38;;;;;;;6.75;1.27;;;;;;;5.25;77.80;98872.53;5027489;27;97759;-73
2024/01/15 10:59:07;;;;;;;4.20;0.88;;;;;;;5.58;75.64;98880.69;5024083;27;97244;-73
2024/01/15 11:01:34;;;;;;;4.65;1.05;;;;;;;5.45;74.82;98880.38;5022713;27;98800;-73
2024/01/15 11:04:01;;;;;;;5.38;1.25;;;;;;;5.26;75.97;98878.63;5023773;27;99246;-74
2024/01/15 11:06:29;;;;;;;7.70;1.20;;;;;;;5.10;76.54;98876.69;5028950;27;97587;-74
2024/01/15 11:08:56;;;;;;;1.75;0.55;;;;;;;5.32;76.43;98876.59;5023804;27;97278;-74
2024/01/15 11:11:23;;;;;;;6.22;0.98;;;;;;;5.31;76.29;98874.06;5022449;27;98983;-74
2024/01/15 11:13:51;;;;;;;3.53;1.00;;;;;;;4.91;78.13;98872.31;5021923;27;101450;-75
2024/01/15 11:16:19;;;;;;;3.47;0.90;;;;;;;4.88;77.71;98883.75;5029877;27;96972;-73
2024/01/15 11:19:03;;;;;;;2.75;0.73;;;;;;;4.79;79.20;98882.34;5027055;27;97468;-73
2024/01/15 11:21:30;;;;;;;3.25;0.50;;;;;;;5.19;78.49;98876.28;5023691;27;99313;-75
2024/01/15 11:23:58;;;;;;;2.78;0.70;;;;;;;5.15;78.73;98885.19;5023933;28;99212;-76
2024/01/15 11:26:32;;;;;;;2.17;0.40;;;;;;;4.33;81.55;98882.53;5020983;28;96877;-75
2024/01/15 11:29:00;;;;;;;2.00;0.60;;;;;;;4.78;81.41;98898.13;5015842;27;97668;-75
2024/01/15 11:31:58;;;;;;;2.78;0.82;;;;;;;5.06;79.63;98889.94;5020815;27;100647;-75
2024/01/15 11:34:51;;;;;;;3.60;0.70;;;;;;;5.09;79.71;98900.31;5024351;27;98818;-74